Alder, Washington
Current Conditions -  °F | °C
As of 8:58 AM on Friday 24 Oct 2014 (Local Time) from KGRF Reporting Station
Clear Clear  
Wind Chill: 46°   Ceiling: Unl
Heat Index: 46°   Visibility: 10mi
Dew Point: 45°   Wind: 2mph
Humidity: 99%   Direction: 50°NE
Pressure: 30.04"   Gusts: NA
Location:  46.8687°N, 122.208°W
Report Text: KGRF 241558Z AUTO 05002KT 10SM CLR 08/07 A3004 RMK AO2 SLP177 P0000 T00760074 $
Loading
Personal Weather Stations






























Interactive Weather Map
Tropical Storm Tracking
New forecast layout! Learn more

10-Day Weather Forecast

Advertisements
Track Severe Weather on mobile